Maple Grove, Minnesota
Current Conditions -  °F | °C
As of 12:53 PM on Friday 21 Nov 2014 (Local Time) from KMIC Reporting Station
Overcast Overcast  
Wind Chill: 17°   Ceiling: 12000
Heat Index: 28°   Visibility: 10mi
Dew Point: 16°   Wind: 14mph
Humidity: 61%   Direction: 160°SSE
Pressure: 30.05"   Gusts: 24mph
Location:  45.1°N, 93.44°W
Report Text: KMIC 211853Z 16012G21KT 10SM OVC120 M02/M09 A3005 RMK AO2 SLP194 T10221089
Loading
Personal Weather Stations






























Interactive Weather Map New forecast layout! Learn more

10-Day Weather Forecast

Advertisements
Track Severe Weather on mobile